Union, Washington
Current Conditions -  °F | °C
As of 5:12 AM on Thursday 27 Nov 2014 (Local Time) from KSHN Reporting Station
Overcast Overcast  
Wind Chill: 52°   Ceiling: 700
Heat Index: 52°   Visibility: 10mi
Dew Point: 51°   Wind: 7mph
Humidity: 97%   Direction: 140°SE
Pressure: 29.82"   Gusts: NA
Location:  47.35°N, 123.1°W
Report Text: KSHN 271312Z AUTO 14006KT 10SM BKN007 OVC011 11/11 A2982 RMK AO2 CIG 003V010 T01110106
Loading
Personal Weather Stations






























Interactive Weather Map New forecast layout! Learn more

10-Day Weather Forecast

Advertisements
Track Severe Weather on mobile